sensor_id;sensor_type;location;lat;lon;timestamp;pressure;altitude;pressure_sealevel;temperature;humidity
24610;BME280;12758;47.890;11.694;2023-11-18T00:00:08;94410.78;;;3.47;100.00
24610;BME280;12758;47.890;11.694;2023-11-18T00:02:37;94405.66;;;3.61;100.00
24610;BME280;12758;47.890;11.694;2023-11-18T00:05:04;94405.16;;;3.34;100.00
24610;BME280;12758;47.890;11.694;2023-11-18T00:07:33;94410.28;;;3.40;100.00
24610;BME280;12758;47.890;11.694;2023-11-18T00:09:59;94408.91;;;3.33;100.00
24610;BME280;12758;47.890;11.694;2023-11-18T00:12:25;94412.94;;;3.25;100.00
24610;BME280;12758;47.890;11.694;2023-11-18T00:14:51;94411.06;;;3.31;100.00
24610;BME280;12758;47.890;11.694;2023-11-18T00:17:17;94418.03;;;3.32;100.00
24610;BME280;12758;47.890;11.694;2023-11-18T00:19:44;94406.25;;;3.28;100.00
24610;BME280;12758;47.890;11.694;2023-11-18T00:22:10;94404.38;;;3.28;100.00
24610;BME280;12758;47.890;11.694;2023-11-18T00:24:37;94401.69;;;3.18;100.00
24610;BME280;12758;47.890;11.694;2023-11-18T00:27:04;94408.38;;;3.41;100.00
24610;BME280;12758;47.890;11.694;2023-11-18T00:29:32;94403.03;;;3.15;100.00
24610;BME280;12758;47.890;11.694;2023-11-18T00:31:58;94413.75;;;3.25;100.00
24610;BME280;12758;47.890;11.694;2023-11-18T00:34:24;94418.56;;;3.29;100.00
24610;BME280;12758;47.890;11.694;2023-11-18T00:36:50;94418.31;;;3.15;100.00
24610;BME280;12758;47.890;11.694;2023-11-18T00:39:17;94423.41;;;3.21;100.00
24610;BME280;12758;47.890;11.694;2023-11-18T00:41:44;94420.44;;;3.43;100.00
24610;BME280;12758;47.890;11.694;2023-11-18T00:44:10;94428.25;;;3.50;100.00
24610;BME280;12758;47.890;11.694;2023-11-18T00:46:36;94433.59;;;3.45;100.00
24610;BME280;12758;47.890;11.694;2023-11-18T00:49:02;94433.06;;;3.38;100.00
24610;BME280;12758;47.890;11.694;2023-11-18T00:51:28;94440.84;;;3.29;100.00
24610;BME280;12758;47.890;11.694;2023-11-18T00:53:54;94447.00;;;3.19;100.00
24610;BME280;12758;47.890;11.694;2023-11-18T00:56:20;94453.44;;;3.23;100.00
24610;BME280;12758;47.890;11.694;2023-11-18T00:58:47;94444.31;;;3.19;100.00
24610;BME280;12758;47.890;11.694;2023-11-18T01:01:14;94449.69;;;3.24;100.00
24610;BME280;12758;47.890;11.694;2023-11-18T01:03:43;94445.66;;;3.32;100.00
24610;BME280;12758;47.890;11.694;2023-11-18T01:06:09;94448.06;;;3.34;100.00
24610;BME280;12758;47.890;11.694;2023-11-18T01:08:35;94441.66;;;3.50;100.00
24610;BME280;12758;47.890;11.694;2023-11-18T01:11:01;94441.63;;;3.55;100.00
24610;BME280;12758;47.890;11.694;2023-11-18T01:13:29;94443.78;;;3.48;100.00
24610;BME280;12758;47.890;11.694;2023-11-18T01:15:57;94442.19;;;3.57;100.00
24610;BME280;12758;47.890;11.694;2023-11-18T01:18:23;94440.56;;;3.66;100.00
24610;BME280;12758;47.890;11.694;2023-11-18T01:20:49;94446.75;;;3.67;100.00
24610;BME280;12758;47.890;11.694;2023-11-18T01:23:15;94447.53;;;3.62;100.00
24610;BME280;12758;47.890;11.694;2023-11-18T01:25:41;94455.59;;;3.62;100.00
24610;BME280;12758;47.890;11.694;2023-11-18T01:28:07;94458.28;;;3.37;100.00
24610;BME280;12758;47.890;11.694;2023-11-18T01:30:33;94447.56;;;3.32;100.00
24610;BME280;12758;47.890;11.694;2023-11-18T01:32:59;94450.22;;;3.21;100.00
24610;BME280;12758;47.890;11.694;2023-11-18T01:35:26;94455.59;;;3.21;100.00
24610;BME280;12758;47.890;11.694;2023-11-18T01:37:52;94456.66;;;3.15;100.00
24610;BME280;12758;47.890;11.694;2023-11-18T01:40:20;94454.25;;;3.44;100.00
24610;BME280;12758;47.890;11.694;2023-11-18T01:42:46;94457.19;;;3.22;100.00
24610;BME280;12758;47.890;11.694;2023-11-18T01:45:13;94457.72;;;3.30;100.00
24610;BME280;12758;47.890;11.694;2023-11-18T01:47:40;94466.59;;;3.45;100.00
24610;BME280;12758;47.890;11.694;2023-11-18T01:50:07;94471.13;;;3.14;100.00
24610;BME280;12758;47.890;11.694;2023-11-18T01:52:35;94462.56;;;3.33;100.00
24610;BME280;12758;47.890;11.694;2023-11-18T01:55:01;94465.25;;;3.28;100.00
24610;BME280;12758;47.890;11.694;2023-11-18T01:57:29;94459.91;;;3.28;100.00
24610;BME280;12758;47.890;11.694;2023-11-18T01:59:55;94459.88;;;3.43;100.00
24610;BME280;12758;47.890;11.694;2023-11-18T02:02:22;94455.06;;;3.45;100.00
24610;BME280;12758;47.890;11.694;2023-11-18T02:04:48;94460.44;;;3.55;100.00
24610;BME280;12758;47.890;11.694;2023-11-18T02:07:15;94462.28;;;3.65;100.00
24610;BME280;12758;47.890;11.694;2023-11-18T02:09:41;94462.84;;;3.67;100.00
24610;BME280;12758;47.890;11.694;2023-11-18T02:12:13;94463.09;;;3.70;100.00
24610;BME280;12758;47.890;11.694;2023-11-18T02:14:41;94462.56;;;3.53;100.00
24610;BME280;12758;47.890;11.694;2023-11-18T02:17:09;94467.41;;;3.56;100.00
24610;BME280;12758;47.890;11.694;2023-11-18T02:19:36;94476.78;;;3.69;100.00
24610;BME280;12758;47.890;11.694;2023-11-18T02:22:02;94468.47;;;3.55;100.00
24610;BME280;12758;47.890;11.694;2023-11-18T02:24:31;94477.63;;;3.69;100.00
24610;BME280;12758;47.890;11.694;2023-11-18T02:27:03;94474.91;;;3.74;100.00
24610;BME280;12758;47.890;11.694;2023-11-18T02:29:33;94483.78;;;3.80;100.00
24610;BME280;12758;47.890;11.694;2023-11-18T02:32:05;94488.31;;;3.85;100.00
24610;BME280;12758;47.890;11.694;2023-11-18T02:34:34;94490.47;;;3.78;100.00
24610;BME280;12758;47.890;11.694;2023-11-18T02:37:01;94485.63;;;3.90;100.00
24610;BME280;12758;47.890;11.694;2023-11-18T02:39:32;94489.38;;;3.22;100.00
24610;BME280;12758;47.890;11.694;2023-11-18T02:42:05;94479.19;;;3.30;100.00
24610;BME280;12758;47.890;11.694;2023-11-18T02:44:33;94479.72;;;3.26;100.00
24610;BME280;12758;47.890;11.694;2023-11-18T02:47:00;94470.06;;;3.71;100.00
24610;BME280;12758;47.890;11.694;2023-11-18T02:49:27;94480.28;;;3.54;100.00
24610;BME280;12758;47.890;11.694;2023-11-18T02:51:53;94489.41;;;3.53;100.00
24610;BME280;12758;47.890;11.694;2023-11-18T02:54:20;94478.66;;;3.43;100.00
24610;BME280;12758;47.890;11.694;2023-11-18T02:56:47;94477.59;;;3.18;100.00
24610;BME280;12758;47.890;11.694;2023-11-18T02:59:13;94478.66;;;3.33;100.00
24610;BME280;12758;47.890;11.694;2023-11-18T03:01:39;94471.69;;;3.26;100.00
24610;BME280;12758;47.890;11.694;2023-11-18T03:04:06;94477.06;;;3.32;100.00
24610;BME280;12758;47.890;11.694;2023-11-18T03:06:34;94473.84;;;3.30;100.00
24610;BME280;12758;47.890;11.694;2023-11-18T03:09:01;94474.41;;;3.47;100.00
24610;BME280;12758;47.890;11.694;2023-11-18T03:11:27;94476.00;;;3.73;100.00
24610;BME280;12758;47.890;11.694;2023-11-18T03:13:55;94477.59;;;3.54;100.00
24610;BME280;12758;47.890;11.694;2023-11-18T03:16:22;94476.25;;;3.41;100.00
24610;BME280;12758;47.890;11.694;2023-11-18T03:18:50;94472.22;;;3.39;100.00
24610;BME280;12758;47.890;11.694;2023-11-18T03:21:16;94479.75;;;3.47;100.00
24610;BME280;12758;47.890;11.694;2023-11-18T03:23:42;94474.91;;;3.34;100.00
24610;BME280;12758;47.890;11.694;2023-11-18T03:26:09;94477.59;;;3.49;100.00
24610;BME280;12758;47.890;11.694;2023-11-18T03:28:35;94481.38;;;3.48;100.00
24610;BME280;12758;47.890;11.694;2023-11-18T03:31:02;94484.84;;;3.43;100.00
24610;BME280;12758;47.890;11.694;2023-11-18T03:33:29;94484.84;;;3.33;100.00
24610;BME280;12758;47.890;11.694;2023-11-18T03:35:56;94488.34;;;3.49;100.00
24610;BME280;12758;47.890;11.694;2023-11-18T03:38:22;94490.22;;;3.54;100.00
24610;BME280;12758;47.890;11.694;2023-11-18T03:40:49;94495.31;;;3.70;100.00
24610;BME280;12758;47.890;11.694;2023-11-18T03:43:15;94493.69;;;3.59;100.00
24610;BME280;12758;47.890;11.694;2023-11-18T03:45:42;94498.53;;;3.52;100.00
24610;BME280;12758;47.890;11.694;2023-11-18T03:48:08;94503.38;;;3.60;100.00
24610;BME280;12758;47.890;11.694;2023-11-18T03:50:35;94514.63;;;3.42;100.00
24610;BME280;12758;47.890;11.694;2023-11-18T03:53:01;94510.34;;;3.46;100.00
24610;BME280;12758;47.890;11.694;2023-11-18T03:55:28;94509.25;;;3.52;100.00
24610;BME280;12758;47.890;11.694;2023-11-18T03:57:55;94516.78;;;3.76;100.00
24610;BME280;12758;47.890;11.694;2023-11-18T04:00:22;94515.16;;;3.49;100.00
24610;BME280;12758;47.890;11.694;2023-11-18T04:02:49;94525.91;;;3.54;100.00
24610;BME280;12758;47.890;11.694;2023-11-18T04:05:15;94518.94;;;3.48;100.00
24610;BME280;12758;47.890;11.694;2023-11-18T04:07:42;94525.38;;;3.57;100.00
24610;BME280;12758;47.890;11.694;2023-11-18T04:10:08;94520.78;;;3.32;100.00
24610;BME280;12758;47.890;11.694;2023-11-18T04:12:36;94521.56;;;3.17;100.00
24610;BME280;12758;47.890;11.694;2023-11-18T04:15:02;94522.66;;;3.26;100.00
24610;BME280;12758;47.890;11.694;2023-11-18T04:17:30;94524.00;;;3.29;100.00
24610;BME280;12758;47.890;11.694;2023-11-18T04:19:56;94516.75;;;3.40;100.00
24610;BME280;12758;47.890;11.694;2023-11-18T04:22:22;94520.53;;;3.49;100.00
24610;BME280;12758;47.890;11.694;2023-11-18T04:24:49;94515.69;;;3.25;100.00
24610;BME280;12758;47.890;11.694;2023-11-18T04:27:15;94515.94;;;3.29;100.00
24610;BME280;12758;47.890;11.694;2023-11-18T04:29:41;94516.81;;;3.50;100.00
24610;BME280;12758;47.890;11.694;2023-11-18T04:32:08;94516.22;;;3.43;100.00
24610;BME280;12758;47.890;11.694;2023-11-18T04:34:35;94505.78;;;3.57;100.00
24610;BME280;12758;47.890;11.694;2023-11-18T04:37:01;94507.66;;;3.71;100.00
24610;BME280;12758;47.890;11.694;2023-11-18T04:39:27;94513.03;;;3.92;100.00
24610;BME280;12758;47.890;11.694;2023-11-18T04:41:56;94507.13;;;3.85;100.00
24610;BME280;12758;47.890;11.694;2023-11-18T04:44:22;94512.50;;;3.95;100.00
24610;BME280;12758;47.890;11.694;2023-11-18T04:46:48;94516.25;;;3.84;100.00
24610;BME280;12758;47.890;11.694;2023-11-18T04:49:14;94517.31;;;3.78;100.00
24610;BME280;12758;47.890;11.694;2023-11-18T04:51:40;94519.22;;;3.92;100.00
24610;BME280;12758;47.890;11.694;2023-11-18T04:54:06;94520.81;;;3.93;100.00
24610;BME280;12758;47.890;11.694;2023-11-18T04:56:33;94517.31;;;4.08;100.00
24610;BME280;12758;47.890;11.694;2023-11-18T04:59:01;94514.06;;;4.16;100.00
24610;BME280;12758;47.890;11.694;2023-11-18T05:01:27;94516.50;;;4.18;100.00
24610;BME280;12758;47.890;11.694;2023-11-18T05:03:53;94516.81;;;3.86;100.00
24610;BME280;12758;47.890;11.694;2023-11-18T05:06:19;94514.94;;;3.76;100.00
24610;BME280;12758;47.890;11.694;2023-11-18T05:08:46;94520.81;;;3.83;100.00
24610;BME280;12758;47.890;11.694;2023-11-18T05:11:12;94520.84;;;3.73;100.00
24610;BME280;12758;47.890;11.694;2023-11-18T05:13:38;94528.59;;;3.74;100.00
24610;BME280;12758;47.890;11.694;2023-11-18T05:16:07;94527.81;;;3.64;100.00
24610;BME280;12758;47.890;11.694;2023-11-18T05:18:36;94525.38;;;3.62;100.00
24610;BME280;12758;47.890;11.694;2023-11-18T05:21:03;94529.16;;;3.77;100.00
24610;BME280;12758;47.890;11.694;2023-11-18T05:23:30;94529.13;;;3.51;100.00
24610;BME280;12758;47.890;11.694;2023-11-18T05:25:57;94522.16;;;3.50;100.00
24610;BME280;12758;47.890;11.694;2023-11-18T05:28:23;94513.56;;;3.53;100.00
24610;BME280;12758;47.890;11.694;2023-11-18T05:30:50;94510.63;;;3.55;100.00
24610;BME280;12758;47.890;11.694;2023-11-18T05:33:17;94514.34;;;3.38;100.00
24610;BME280;12758;47.890;11.694;2023-11-18T05:35:43;94504.69;;;3.42;100.00
24610;BME280;12758;47.890;11.694;2023-11-18T05:38:14;94502.81;;;3.68;100.00
24610;BME280;12758;47.890;11.694;2023-11-18T05:40:44;94502.31;;;3.77;100.00
24610;BME280;12758;47.890;11.694;2023-11-18T05:43:19;94512.50;;;3.80;100.00
24610;BME280;12758;47.890;11.694;2023-11-18T05:45:46;94509.00;;;3.69;100.00
24610;BME280;12758;47.890;11.694;2023-11-18T05:48:41;94506.59;;;3.78;100.00
24610;BME280;12758;47.890;11.694;2023-11-18T05:51:07;94510.34;;;3.66;100.00
24610;BME280;12758;47.890;11.694;2023-11-18T05:53:33;94513.56;;;3.68;100.00
24610;BME280;12758;47.890;11.694;2023-11-18T05:55:59;94517.34;;;3.47;100.00
24610;BME280;12758;47.890;11.694;2023-11-18T05:58:25;94514.91;;;3.66;100.00
24610;BME280;12758;47.890;11.694;2023-11-18T06:00:53;94523.75;;;3.51;100.00
24610;BME280;12758;47.890;11.694;2023-11-18T06:03:20;94530.69;;;3.21;100.00
24610;BME280;12758;47.890;11.694;2023-11-18T06:05:47;94532.88;;;3.40;100.00
24610;BME280;12758;47.890;11.694;2023-11-18T06:08:13;94531.16;;;2.98;100.00
24610;BME280;12758;47.890;11.694;2023-11-18T06:10:39;94528.75;;;2.96;100.00
24610;BME280;12758;47.890;11.694;2023-11-18T06:13:05;94533.91;;;3.23;100.00
24610;BME280;12758;47.890;11.694;2023-11-18T06:15:31;94540.28;;;2.97;100.00
24610;BME280;12758;47.890;11.694;2023-11-18T06:17:58;94548.59;;;2.95;100.00
24610;BME280;12758;47.890;11.694;2023-11-18T06:20:24;94555.88;;;3.05;100.00
24610;BME280;12758;47.890;11.694;2023-11-18T06:22:51;94555.63;;;3.17;100.00
24610;BME280;12758;47.890;11.694;2023-11-18T06:25:17;94554.84;;;3.26;100.00
24610;BME280;12758;47.890;11.694;2023-11-18T06:27:43;94551.66;;;3.35;100.00
24610;BME280;12758;47.890;11.694;2023-11-18T06:30:12;94546.31;;;3.55;100.00
24610;BME280;12758;47.890;11.694;2023-11-18T06:32:38;94553.25;;;3.46;100.00
24610;BME280;12758;47.890;11.694;2023-11-18T06:35:05;94551.66;;;3.35;100.00
24610;BME280;12758;47.890;11.694;2023-11-18T06:37:32;94551.16;;;3.68;100.00
24610;BME280;12758;47.890;11.694;2023-11-18T06:39:58;94557.03;;;3.76;100.00
24610;BME280;12758;47.890;11.694;2023-11-18T06:42:25;94547.13;;;3.76;100.00
24610;BME280;12758;47.890;11.694;2023-11-18T06:44:51;94560.28;;;3.57;100.00
24610;BME280;12758;47.890;11.694;2023-11-18T06:47:17;94559.69;;;3.35;100.00
24610;BME280;12758;47.890;11.694;2023-11-18T06:49:44;94561.84;;;3.38;100.00
24610;BME280;12758;47.890;11.694;2023-11-18T06:52:12;94561.63;;;3.65;100.00
24610;BME280;12758;47.890;11.694;2023-11-18T06:54:41;94545.78;;;3.73;100.00
24610;BME280;12758;47.890;11.694;2023-11-18T06:57:08;94541.50;;;3.93;100.00
24610;BME280;12758;47.890;11.694;2023-11-18T06:59:34;94540.97;;;3.86;100.00
24610;BME280;12758;47.890;11.694;2023-11-18T07:02:00;94543.63;;;4.01;100.00
24610;BME280;12758;47.890;11.694;2023-11-18T07:04:26;94550.63;;;4.12;100.00
24610;BME280;12758;47.890;11.694;2023-11-18T07:06:52;94545.25;;;4.17;100.00
24610;BME280;12758;47.890;11.694;2023-11-18T07:09:18;94552.75;;;4.10;100.00
24610;BME280;12758;47.890;11.694;2023-11-18T07:11:46;94559.19;;;4.19;100.00
24610;BME280;12758;47.890;11.694;2023-11-18T07:14:13;94555.44;;;4.15;100.00
24610;BME280;12758;47.890;11.694;2023-11-18T07:16:40;94555.44;;;4.20;100.00
24610;BME280;12758;47.890;11.694;2023-11-18T07:19:06;94558.13;;;4.20;100.00
24610;BME280;12758;47.890;11.694;2023-11-18T07:21:33;94559.75;;;4.22;100.00
24610;BME280;12758;47.890;11.694;2023-11-18T07:23:59;94562.69;;;4.30;100.00
24610;BME280;12758;47.890;11.694;2023-11-18T07:26:25;94568.59;;;4.27;100.00
24610;BME280;12758;47.890;11.694;2023-11-18T07:28:51;94569.38;;;4.38;100.00
24610;BME280;12758;47.890;11.694;2023-11-18T07:31:18;94566.16;;;4.36;100.00
24610;BME280;12758;47.890;11.694;2023-11-18T07:33:44;94570.44;;;4.42;100.00
24610;BME280;12758;47.890;11.694;2023-11-18T07:36:14;94569.38;;;4.48;100.00
24610;BME280;12758;47.890;11.694;2023-11-18T07:38:41;94574.75;;;4.48;100.00
24610;BME280;12758;47.890;11.694;2023-11-18T07:41:07;94573.69;;;4.44;100.00
24610;BME280;12758;47.890;11.694;2023-11-18T07:43:34;94582.00;;;4.42;100.00
24610;BME280;12758;47.890;11.694;2023-11-18T07:46:02;94586.03;;;4.45;100.00
24610;BME280;12758;47.890;11.694;2023-11-18T07:48:28;94588.19;;;4.53;100.00
24610;BME280;12758;47.890;11.694;2023-11-18T07:50:56;94592.47;;;4.49;100.00
24610;BME280;12758;47.890;11.694;2023-11-18T07:53:22;94598.38;;;4.46;100.00
24610;BME280;12758;47.890;11.694;2023-11-18T07:55:48;94596.25;;;4.48;100.00
24610;BME280;12758;47.890;11.694;2023-11-18T07:58:16;94592.47;;;4.54;100.00
24610;BME280;12758;47.890;11.694;2023-11-18T08:00:44;94590.88;;;4.48;100.00
24610;BME280;12758;47.890;11.694;2023-11-18T08:03:10;94596.00;;;4.50;100.00
24610;BME280;12758;47.890;11.694;2023-11-18T08:05:38;94589.81;;;4.44;100.00
24610;BME280;12758;47.890;11.694;2023-11-18T08:08:05;94588.44;;;4.52;100.00
24610;BME280;12758;47.890;11.694;2023-11-18T08:10:31;94584.94;;;4.46;100.00
24610;BME280;12758;47.890;11.694;2023-11-18T08:12:58;94586.56;;;4.42;100.00
24610;BME280;12758;47.890;11.694;2023-11-18T08:15:24;94586.06;;;4.25;100.00
24610;BME280;12758;47.890;11.694;2023-11-18T08:17:52;94589.28;;;4.27;100.00
24610;BME280;12758;47.890;11.694;2023-11-18T08:20:18;94589.28;;;4.37;100.00
24610;BME280;12758;47.890;11.694;2023-11-18T08:22:49;94584.16;;;4.20;100.00
24610;BME280;12758;47.890;11.694;2023-11-18T08:25:15;94581.78;;;4.18;100.00
24610;BME280;12758;47.890;11.694;2023-11-18T08:27:43;94590.91;;;3.97;100.00
24610;BME280;12758;47.890;11.694;2023-11-18T08:30:10;94578.53;;;4.16;100.00
24610;BME280;12758;47.890;11.694;2023-11-18T08:32:37;94582.28;;;4.10;100.00
24610;BME280;12758;47.890;11.694;2023-11-18T08:35:04;94583.38;;;4.19;100.00
24610;BME280;12758;47.890;11.694;2023-11-18T08:37:31;94583.63;;;4.23;100.00
24610;BME280;12758;47.890;11.694;2023-11-18T08:39:59;94583.38;;;4.25;100.00
24610;BME280;12758;47.890;11.694;2023-11-18T08:42:26;94588.19;;;4.33;100.00
24610;BME280;12758;47.890;11.694;2023-11-18T08:44:53;94593.56;;;4.33;100.00
24610;BME280;12758;47.890;11.694;2023-11-18T08:47:20;94599.50;;;4.19;100.00
24610;BME280;12758;47.890;11.694;2023-11-18T08:49:46;94597.91;;;4.18;100.00
24610;BME280;12758;47.890;11.694;2023-11-18T08:52:12;94597.91;;;4.08;100.00
24610;BME280;12758;47.890;11.694;2023-11-18T08:54:38;94593.06;;;4.15;100.00
24610;BME280;12758;47.890;11.694;2023-11-18T08:57:25;94589.81;;;4.34;100.00
24610;BME280;12758;47.890;11.694;2023-11-18T08:59:51;94572.88;;;4.33;100.00
24610;BME280;12758;47.890;11.694;2023-11-18T09:02:17;94576.13;;;4.25;100.00
24610;BME280;12758;47.890;11.694;2023-11-18T09:04:48;94579.06;;;4.34;100.00
24610;BME280;12758;47.890;11.694;2023-11-18T09:07:15;94587.66;;;4.26;100.00
24610;BME280;12758;47.890;11.694;2023-11-18T09:09:41;94586.06;;;4.35;100.00
24610;BME280;12758;47.890;11.694;2023-11-18T09:12:07;94580.66;;;4.30;100.00
24610;BME280;12758;47.890;11.694;2023-11-18T09:14:34;94574.25;;;4.31;100.00
24610;BME280;12758;47.890;11.694;2023-11-18T09:17:03;94579.88;;;4.34;100.00
24610;BME280;12758;47.890;11.694;2023-11-18T09:19:32;94577.44;;;4.33;100.00
24610;BME280;12758;47.890;11.694;2023-11-18T09:21:58;94578.00;;;4.35;100.00
24610;BME280;12758;47.890;11.694;2023-11-18T09:24:26;94569.38;;;4.38;100.00
24610;BME280;12758;47.890;11.694;2023-11-18T09:26:54;94577.19;;;4.34;100.00
24610;BME280;12758;47.890;11.694;2023-11-18T09:29:20;94576.91;;;4.36;100.00
24610;BME280;12758;47.890;11.694;2023-11-18T09:31:50;94578.28;;;4.28;100.00
24610;BME280;12758;47.890;11.694;2023-11-18T09:34:18;94587.13;;;4.34;100.00
24610;BME280;12758;47.890;11.694;2023-11-18T09:36:53;94585.78;;;4.26;100.00
24610;BME280;12758;47.890;11.694;2023-11-18T09:39:19;94578.25;;;4.33;100.00
24610;BME280;12758;47.890;11.694;2023-11-18T09:41:54;94582.28;;;4.36;100.00
24610;BME280;12758;47.890;11.694;2023-11-18T09:44:21;94572.06;;;4.38;100.00
24610;BME280;12758;47.890;11.694;2023-11-18T09:46:48;94580.13;;;4.38;100.00
24610;BME280;12758;47.890;11.694;2023-11-18T09:49:26;94587.91;;;4.39;100.00
24610;BME280;12758;47.890;11.694;2023-11-18T09:51:59;94579.63;;;4.31;100.00
24610;BME280;12758;47.890;11.694;2023-11-18T09:54:27;94574.22;;;4.41;100.00
24610;BME280;12758;47.890;11.694;2023-11-18T09:57:03;94570.97;;;4.49;100.00
24610;BME280;12758;47.890;11.694;2023-11-18T09:59:39;94572.34;;;4.47;100.00
24610;BME280;12758;47.890;11.694;2023-11-18T10:02:10;94568.31;;;4.44;100.00
24610;BME280;12758;47.890;11.694;2023-11-18T10:04:37;94566.69;;;4.43;100.00
24610;BME280;12758;47.890;11.694;2023-11-18T10:07:04;94574.75;;;4.38;100.00
24610;BME280;12758;47.890;11.694;2023-11-18T10:09:32;94581.75;;;4.39;100.00
24610;BME280;12758;47.890;11.694;2023-11-18T10:12:03;94579.63;;;4.31;100.00
24610;BME280;12758;47.890;11.694;2023-11-18T10:14:31;94575.84;;;4.37;100.00
24610;BME280;12758;47.890;11.694;2023-11-18T10:16:57;94578.25;;;4.38;100.00
24610;BME280;12758;47.890;11.694;2023-11-18T10:19:23;94576.09;;;4.46;100.00
24610;BME280;12758;47.890;11.694;2023-11-18T10:21:52;94576.09;;;4.46;100.00
24610;BME280;12758;47.890;11.694;2023-11-18T10:24:18;94573.69;;;4.44;100.00
24610;BME280;12758;47.890;11.694;2023-11-18T10:26:45;94571.00;;;4.39;100.00
24610;BME280;12758;47.890;11.694;2023-11-18T10:29:11;94568.59;;;4.37;100.00
24610;BME280;12758;47.890;11.694;2023-11-18T10:31:40;94569.91;;;4.45;100.00
24610;BME280;12758;47.890;11.694;2023-11-18T10:34:11;94566.97;;;4.41;100.00
24610;BME280;12758;47.890;11.694;2023-11-18T10:36:41;94571.00;;;4.44;100.00
24610;BME280;12758;47.890;11.694;2023-11-18T10:39:13;94570.44;;;4.52;100.00
24610;BME280;12758;47.890;11.694;2023-11-18T10:41:42;94555.94;;;4.43;100.00
24610;BME280;12758;47.890;11.694;2023-11-18T10:44:09;94559.69;;;4.42;100.00
24610;BME280;12758;47.890;11.694;2023-11-18T10:46:39;94555.94;;;4.53;100.00
24610;BME280;12758;47.890;11.694;2023-11-18T10:49:06;94552.16;;;4.54;100.00
24610;BME280;12758;47.890;11.694;2023-11-18T10:51:35;94545.72;;;4.50;100.00
24610;BME280;12758;47.890;11.694;2023-11-18T10:54:04;94550.53;;;4.48;100.00
24610;BME280;12758;47.890;11.694;2023-11-18T10:56:47;94553.47;;;4.62;100.00
24610;BME280;12758;47.890;11.694;2023-11-18T10:59:13;94555.91;;;4.58;100.00
24610;BME280;12758;47.890;11.694;2023-11-18T11:01:42;94561.28;;;4.63;100.00
24610;BME280;12758;47.890;11.694;2023-11-18T11:04:08;94566.63;;;4.68;100.00
24610;BME280;12758;47.890;11.694;2023-11-18T11:06:39;94573.09;;;4.67;100.00
24610;BME280;12758;47.890;11.694;2023-11-18T11:09:07;94566.34;;;4.70;100.00
24610;BME280;12758;47.890;11.694;2023-11-18T11:11:42;94572.53;;;4.71;100.00
24610;BME280;12758;47.890;11.694;2023-11-18T11:14:20;94572.00;;;4.79;100.00
24610;BME280;12758;47.890;11.694;2023-11-18T11:16:52;94569.00;;;4.85;100.00
24610;BME280;12758;47.890;11.694;2023-11-18T11:19:24;94569.25;;;4.89;100.00
24610;BME280;12758;47.890;11.694;2023-11-18T11:21:55;94572.94;;;5.08;100.00
24610;BME280;12758;47.890;11.694;2023-11-18T11:24:31;94574.84;;;5.03;100.00
24610;BME280;12758;47.890;11.694;2023-11-18T11:27:07;94580.47;;;5.06;100.00
24610;BME280;12758;47.890;11.694;2023-11-18T11:29:44;94578.03;;;5.15;100.00
24610;BME280;12758;47.890;11.694;2023-11-18T11:32:16;94580.44;;;5.17;100.00
24610;BME280;12758;47.890;11.694;2023-11-18T11:34:53;94589.00;;;5.29;100.00
24610;BME280;12758;47.890;11.694;2023-11-18T11:37:19;94594.31;;;5.39;100.00
24610;BME280;12758;47.890;11.694;2023-11-18T11:39:49;94594.88;;;5.36;100.00
24610;BME280;12758;47.890;11.694;2023-11-18T11:42:19;94587.34;;;5.38;100.00
24610;BME280;12758;47.890;11.694;2023-11-18T11:44:47;94588.34;;;5.52;100.00
24610;BME280;12758;47.890;11.694;2023-11-18T11:47:13;94587.34;;;5.38;100.00
24610;BME280;12758;47.890;11.694;2023-11-18T11:49:44;94589.53;;;5.31;100.00
24610;BME280;12758;47.890;11.694;2023-11-18T11:52:17;94588.13;;;5.38;100.00
24610;BME280;12758;47.890;11.694;2023-11-18T11:54:51;94580.84;;;5.44;100.00
24610;BME280;12758;47.890;11.694;2023-11-18T11:57:22;94576.50;;;5.53;100.00
24610;BME280;12758;47.890;11.694;2023-11-18T11:59:55;94565.19;;;5.51;100.00
24610;BME280;12758;47.890;11.694;2023-11-18T12:02:22;94564.13;;;5.47;100.00
24610;BME280;12758;47.890;11.694;2023-11-18T12:04:53;94565.19;;;5.51;100.00
24610;BME280;12758;47.890;11.694;2023-11-18T12:07:19;94564.13;;;5.52;100.00
24610;BME280;12758;47.890;11.694;2023-11-18T12:09:48;94571.66;;;5.55;100.00
24610;BME280;12758;47.890;11.694;2023-11-18T12:12:20;94555.97;;;5.63;100.00
24610;BME280;12758;47.890;11.694;2023-11-18T12:14:50;94556.53;;;5.59;100.00
24610;BME280;12758;47.890;11.694;2023-11-18T12:17:18;94560.03;;;5.55;100.00
24610;BME280;12758;47.890;11.694;2023-11-18T12:19:47;94557.09;;;5.56;100.00
24610;BME280;12758;47.890;11.694;2023-11-18T12:22:15;94554.94;;;5.53;100.00
24610;BME280;12758;47.890;11.694;2023-11-18T12:24:45;94551.72;;;5.56;100.00
24610;BME280;12758;47.890;11.694;2023-11-18T12:27:42;94554.41;;;5.51;100.00
24610;BME280;12758;47.890;11.694;2023-11-18T12:30:39;94546.34;;;5.51;100.00
24610;BME280;12758;47.890;11.694;2023-11-18T12:33:09;94540.38;;;5.59;100.00
24610;BME280;12758;47.890;11.694;2023-11-18T12:35:48;94532.31;;;5.54;100.00
24610;BME280;12758;47.890;11.694;2023-11-18T12:41:14;94520.50;;;5.50;100.00
24610;BME280;12758;47.890;11.694;2023-11-18T12:44:01;94513.00;;;5.47;100.00
24610;BME280;12758;47.890;11.694;2023-11-18T12:46:52;94511.91;;;5.48;100.00
24610;BME280;12758;47.890;11.694;2023-11-18T12:49:19;94511.38;;;5.46;100.00
24610;BME280;12758;47.890;11.694;2023-11-18T12:51:49;94512.44;;;5.45;100.00
24610;BME280;12758;47.890;11.694;2023-11-18T12:54:15;94500.09;;;5.44;100.00
24610;BME280;12758;47.890;11.694;2023-11-18T12:56:44;94498.16;;;5.50;100.00